createdAt,value
2023-05-19T00:01:37.785Z,12.75
2023-05-19T00:04:05.517Z,12.74
2023-05-19T00:06:33.522Z,12.73
2023-05-19T00:09:07.572Z,12.73
2023-05-19T00:11:38.374Z,12.73
2023-05-19T00:14:10.248Z,12.74
2023-05-19T00:16:38.477Z,12.74
2023-05-19T00:19:06.680Z,12.74
2023-05-19T00:21:33.950Z,12.74
2023-05-19T00:24:01.424Z,12.73
2023-05-19T00:26:28.652Z,12.75
2023-05-19T00:28:59.573Z,12.74
2023-05-19T00:31:26.770Z,12.73
2023-05-19T00:33:55.250Z,12.72
2023-05-19T00:36:22.430Z,12.73
2023-05-19T00:38:51.227Z,12.73
2023-05-19T00:41:18.514Z,12.74
2023-05-19T00:43:45.790Z,12.74
2023-05-19T00:46:13.105Z,12.73
2023-05-19T00:48:40.337Z,12.73
2023-05-19T00:51:07.585Z,12.72
2023-05-19T00:53:35.607Z,12.72
2023-05-19T00:56:03.908Z,12.72
2023-05-19T00:58:32.815Z,12.70
2023-05-19T01:01:04.525Z,12.70
2023-05-19T01:03:35.606Z,12.70
2023-05-19T01:06:07.551Z,12.70
2023-05-19T01:08:37.456Z,12.71
2023-05-19T01:11:08.468Z,12.71
2023-05-19T01:13:36.937Z,12.72
2023-05-19T01:16:24.911Z,12.71
2023-05-19T01:19:22.323Z,12.70
2023-05-19T01:21:58.522Z,12.69
2023-05-19T01:24:59.345Z,12.69
2023-05-19T01:28:05.482Z,12.68
2023-05-19T01:30:42.788Z,12.65
2023-05-19T01:33:14.336Z,12.65
2023-05-19T01:35:43.693Z,12.65
2023-05-19T01:38:12.981Z,12.65
2023-05-19T01:40:42.293Z,12.65
2023-05-19T01:43:12.586Z,12.65
2023-05-19T01:45:40.590Z,12.64
2023-05-19T01:48:10.860Z,12.64
2023-05-19T01:50:39.592Z,12.64
2023-05-19T01:53:06.821Z,12.64
2023-05-19T01:55:48.427Z,12.63
2023-05-19T01:58:25.846Z,12.64
2023-05-19T02:01:11.197Z,12.63
2023-05-19T02:03:59.317Z,12.62
2023-05-19T02:06:49.755Z,12.61
2023-05-19T02:10:04.233Z,12.60
2023-05-19T02:12:36.043Z,12.59
2023-05-19T02:15:06.516Z,12.59
2023-05-19T02:17:38.400Z,12.59
2023-05-19T02:20:06.852Z,12.58
2023-05-19T02:22:34.048Z,12.57
2023-05-19T02:25:01.429Z,12.56
2023-05-19T02:27:28.647Z,12.56
2023-05-19T02:29:55.954Z,12.55
2023-05-19T02:32:23.065Z,12.54
2023-05-19T02:34:50.224Z,12.53
2023-05-19T02:37:17.860Z,12.52
2023-05-19T02:39:45.006Z,12.52
2023-05-19T02:42:14.782Z,12.52
2023-05-19T02:44:41.965Z,12.52
2023-05-19T02:47:09.033Z,12.52
2023-05-19T02:49:36.255Z,12.52
2023-05-19T02:52:04.941Z,12.52
2023-05-19T02:54:33.367Z,12.51
2023-05-19T02:57:01.553Z,12.51
2023-05-19T02:59:28.844Z,12.49
2023-05-19T03:01:59.713Z,12.49
2023-05-19T03:04:27.557Z,12.49
2023-05-19T03:06:54.670Z,12.49
2023-05-19T03:09:21.858Z,12.49
2023-05-19T03:11:49.079Z,12.47
2023-05-19T03:14:16.227Z,12.48
2023-05-19T03:16:43.638Z,12.48
2023-05-19T03:19:11.105Z,12.49
2023-05-19T03:21:38.310Z,12.47
2023-05-19T03:24:05.706Z,12.46
2023-05-19T03:26:33.565Z,12.46
2023-05-19T03:29:01.113Z,12.47
2023-05-19T03:31:30.899Z,12.48
2023-05-19T03:33:59.276Z,12.48
2023-05-19T03:36:32.099Z,12.50
2023-05-19T03:39:00.114Z,12.49
2023-05-19T03:41:27.621Z,12.47
2023-05-19T03:43:56.011Z,12.47
2023-05-19T03:46:23.223Z,12.48
2023-05-19T03:48:59.408Z,12.51
2023-05-19T03:51:40.292Z,12.52
2023-05-19T03:54:19.116Z,12.52
2023-05-19T03:56:46.273Z,12.52
2023-05-19T03:59:13.441Z,12.53
2023-05-19T04:01:40.559Z,12.55
2023-05-19T04:04:07.909Z,12.56
2023-05-19T04:06:36.361Z,12.57
2023-05-19T04:09:05.265Z,12.59
2023-05-19T04:11:32.479Z,12.60
2023-05-19T04:13:59.679Z,12.62
2023-05-19T04:16:26.967Z,12.62
2023-05-19T04:18:54.237Z,12.63
2023-05-19T04:21:22.491Z,12.62
2023-05-19T04:23:49.691Z,12.62
2023-05-19T04:26:18.124Z,12.63
2023-05-19T04:28:45.326Z,12.63
2023-05-19T04:31:12.864Z,12.63
2023-05-19T04:33:41.137Z,12.64
2023-05-19T04:36:10.773Z,12.65
2023-05-19T04:38:42.478Z,12.66
2023-05-19T04:41:11.061Z,12.67
2023-05-19T04:43:44.672Z,12.68
2023-05-19T04:46:13.922Z,12.69
2023-05-19T04:48:41.779Z,12.69
2023-05-19T04:51:09.119Z,12.69
2023-05-19T04:53:36.704Z,12.71
2023-05-19T04:56:05.995Z,12.72
2023-05-19T04:58:33.359Z,12.74
2023-05-19T05:01:00.969Z,12.75
2023-05-19T05:03:28.548Z,12.77
2023-05-19T05:05:56.880Z,12.78
2023-05-19T05:08:24.094Z,12.80
2023-05-19T05:10:55.562Z,12.83
2023-05-19T05:13:24.184Z,12.87
2023-05-19T05:15:52.395Z,12.91
2023-05-19T05:18:20.058Z,12.96
2023-05-19T05:20:48.364Z,13.00
2023-05-19T05:23:16.794Z,13.04
2023-05-19T05:25:45.680Z,13.08
2023-05-19T05:28:14.444Z,13.10
2023-05-19T05:30:42.128Z,13.15
2023-05-19T05:33:09.798Z,13.18
2023-05-19T05:35:38.717Z,13.20
2023-05-19T05:38:06.717Z,13.25
2023-05-19T05:40:34.366Z,13.28
2023-05-19T05:43:03.119Z,13.30
2023-05-19T05:45:32.794Z,13.32
2023-05-19T05:48:00.890Z,13.35
2023-05-19T05:50:28.638Z,13.37
2023-05-19T05:53:01.216Z,13.39
2023-05-19T05:55:28.738Z,13.42
2023-05-19T05:57:57.032Z,13.45
2023-05-19T06:00:25.076Z,13.47
2023-05-19T06:02:52.337Z,13.49
2023-05-19T06:05:20.209Z,13.51
2023-05-19T06:07:48.240Z,13.52
2023-05-19T06:10:19.894Z,13.54
2023-05-19T06:12:47.400Z,13.58
2023-05-19T06:15:15.871Z,13.61
2023-05-19T06:17:50.986Z,13.64
2023-05-19T06:20:18.997Z,13.66
2023-05-19T06:22:46.259Z,13.69
2023-05-19T06:25:14.203Z,13.73
2023-05-19T06:27:42.182Z,13.77
2023-05-19T06:30:10.087Z,13.82
2023-05-19T06:32:46.238Z,13.87
2023-05-19T06:35:13.823Z,13.88
2023-05-19T06:37:40.994Z,13.91
2023-05-19T06:40:08.904Z,13.96
2023-05-19T06:42:37.051Z,13.99
2023-05-19T06:45:15.759Z,14.03
2023-05-19T06:47:43.016Z,14.06
2023-05-19T06:50:10.687Z,14.10
2023-05-19T06:52:39.606Z,14.12
2023-05-19T06:55:07.144Z,14.17
2023-05-19T06:57:37.694Z,14.22
2023-05-19T07:00:08.658Z,14.25
2023-05-19T07:02:36.151Z,14.29
2023-05-19T07:05:04.143Z,14.32
2023-05-19T07:07:31.454Z,14.34
2023-05-19T07:09:59.072Z,14.36
2023-05-19T07:12:26.730Z,14.38
2023-05-19T07:14:54.044Z,14.40
2023-05-19T07:20:29.045Z,14.49
2023-05-19T07:22:57.378Z,14.49
2023-05-19T07:25:26.291Z,14.49
2023-05-19T07:27:53.624Z,14.50
2023-05-19T07:30:20.855Z,14.49
2023-05-19T07:32:48.225Z,14.49
2023-05-19T07:35:15.558Z,14.49
2023-05-19T07:37:42.817Z,14.50
2023-05-19T07:40:10.404Z,14.50
2023-05-19T07:42:37.684Z,14.51
2023-05-19T07:45:05.380Z,14.52
2023-05-19T07:47:32.683Z,14.55
2023-05-19T07:49:59.891Z,14.57
2023-05-19T07:52:27.132Z,14.58
2023-05-19T07:54:54.511Z,14.60
2023-05-19T07:57:22.279Z,14.61
2023-05-19T07:59:49.544Z,14.62
2023-05-19T08:02:16.820Z,14.63
2023-05-19T08:04:44.102Z,14.63
2023-05-19T08:07:11.432Z,14.62
2023-05-19T08:09:38.591Z,14.59
2023-05-19T08:12:06.074Z,14.57
2023-05-19T08:14:35.029Z,14.56
2023-05-19T08:17:02.341Z,14.55
2023-05-19T08:19:29.530Z,14.54
2023-05-19T08:21:57.748Z,14.50
2023-05-19T08:24:24.922Z,14.48
2023-05-19T08:26:52.111Z,14.48
2023-05-19T08:29:19.315Z,14.50
2023-05-19T08:31:46.627Z,14.52
2023-05-19T08:34:13.944Z,14.54
2023-05-19T08:36:41.989Z,14.58
2023-05-19T08:39:09.196Z,14.61
2023-05-19T08:41:36.615Z,14.64
2023-05-19T08:44:05.429Z,14.64
2023-05-19T08:46:33.006Z,14.64
2023-05-19T08:49:10.087Z,14.63
2023-05-19T08:51:50.711Z,14.64
2023-05-19T08:54:18.731Z,14.66
2023-05-19T08:56:45.947Z,14.66
2023-05-19T08:59:17.373Z,14.69
2023-05-19T09:01:46.332Z,14.70
2023-05-19T09:04:14.315Z,14.71
2023-05-19T09:06:42.515Z,14.69
2023-05-19T09:09:10.381Z,14.66
2023-05-19T09:11:37.879Z,14.63
2023-05-19T09:14:05.868Z,14.60
2023-05-19T09:16:34.179Z,14.55
2023-05-19T09:19:01.544Z,14.53
2023-05-19T09:21:32.935Z,14.50
2023-05-19T09:24:07.424Z,14.48
2023-05-19T09:26:42.125Z,14.44
2023-05-19T09:29:13.261Z,14.42
2023-05-19T09:31:48.931Z,14.43
2023-05-19T09:34:16.590Z,14.45
2023-05-19T09:36:43.882Z,14.47
2023-05-19T09:39:17.873Z,14.48
2023-05-19T09:41:45.858Z,14.50
2023-05-19T09:44:29.833Z,14.51
2023-05-19T09:47:01.057Z,14.53
2023-05-19T09:49:30.358Z,14.57
2023-05-19T09:51:59.829Z,14.62
2023-05-19T09:54:32.043Z,14.67
2023-05-19T09:56:59.822Z,14.71
2023-05-19T09:59:29.910Z,14.74
2023-05-19T10:02:00.305Z,14.75
2023-05-19T10:04:29.065Z,14.75
2023-05-19T10:06:59.933Z,14.73
2023-05-19T10:09:28.978Z,14.71
2023-05-19T10:11:58.306Z,14.69
2023-05-19T10:14:31.455Z,14.64
2023-05-19T10:16:59.693Z,14.58
2023-05-19T10:19:28.853Z,14.53
2023-05-19T10:21:57.007Z,14.49
2023-05-19T10:24:24.304Z,14.45
2023-05-19T10:27:05.679Z,14.42
2023-05-19T10:29:37.959Z,14.38
2023-05-19T10:32:10.611Z,14.35
2023-05-19T10:34:59.639Z,14.33
2023-05-19T10:37:28.896Z,14.31
2023-05-19T10:39:57.918Z,14.29
2023-05-19T10:42:44.450Z,14.27
2023-05-19T10:45:21.603Z,14.24
2023-05-19T10:47:51.652Z,14.23
2023-05-19T10:50:20.820Z,14.24
2023-05-19T10:52:56.871Z,14.25
2023-05-19T10:56:04.811Z,14.24
2023-05-19T10:58:44.087Z,14.20
2023-05-19T11:01:16.672Z,14.18
2023-05-19T11:03:54.098Z,14.19
2023-05-19T11:06:26.596Z,14.19
2023-05-19T11:08:55.567Z,14.19
2023-05-19T11:11:23.614Z,14.22
2023-05-19T11:13:52.674Z,14.25
2023-05-19T11:16:27.325Z,14.27
2023-05-19T11:18:55.966Z,14.29
2023-05-19T11:21:23.315Z,14.30
2023-05-19T11:23:51.789Z,14.30
2023-05-19T11:26:45.221Z,14.29
2023-05-19T11:29:12.825Z,14.28
2023-05-19T11:31:40.180Z,14.28
2023-05-19T11:34:08.845Z,14.29
2023-05-19T11:36:40.097Z,14.28
2023-05-19T11:39:09.569Z,14.29
2023-05-19T11:41:40.764Z,14.30
2023-05-19T11:44:12.267Z,14.30
2023-05-19T11:46:39.511Z,14.31
2023-05-19T11:49:07.444Z,14.30
2023-05-19T11:51:34.740Z,14.29
2023-05-19T11:54:03.521Z,14.30
2023-05-19T11:56:35.419Z,14.31
2023-05-19T11:59:02.559Z,14.31
2023-05-19T12:01:32.031Z,14.32
2023-05-19T12:03:59.200Z,14.33
2023-05-19T12:06:27.731Z,14.35
2023-05-19T12:08:55.450Z,14.38
2023-05-19T12:11:23.733Z,14.42
2023-05-19T12:13:54.715Z,14.44
2023-05-19T12:16:22.031Z,14.47
2023-05-19T12:18:49.197Z,14.48
2023-05-19T12:21:16.523Z,14.51
2023-05-19T12:23:43.820Z,14.54
2023-05-19T12:26:11.736Z,14.58
2023-05-19T12:28:39.034Z,14.61
2023-05-19T12:31:06.450Z,14.64
2023-05-19T12:33:35.747Z,14.64
2023-05-19T12:36:03.314Z,14.64
2023-05-19T12:38:30.669Z,14.63
2023-05-19T12:41:00.207Z,14.60
2023-05-19T12:43:27.710Z,14.57
2023-05-19T12:45:55.114Z,14.56
2023-05-19T12:48:23.047Z,14.56
2023-05-19T12:50:54.075Z,14.55
2023-05-19T12:53:21.618Z,14.55
2023-05-19T12:55:48.820Z,14.57
2023-05-19T12:58:16.662Z,14.60
2023-05-19T13:00:47.459Z,14.64
2023-05-19T13:03:17.293Z,14.68
2023-05-19T13:05:47.058Z,14.74
2023-05-19T13:08:18.432Z,14.79
2023-05-19T13:10:47.400Z,14.85
2023-05-19T13:13:14.887Z,14.90
2023-05-19T13:15:44.556Z,14.95
2023-05-19T13:18:13.369Z,15.01
2023-05-19T13:20:41.938Z,15.03
2023-05-19T13:23:13.497Z,15.06
2023-05-19T13:25:41.543Z,15.07
2023-05-19T13:28:09.717Z,15.06
2023-05-19T13:30:39.369Z,15.02
2023-05-19T13:33:07.245Z,14.98
2023-05-19T13:35:37.852Z,14.91
2023-05-19T13:38:06.888Z,14.87
2023-05-19T13:40:35.235Z,14.81
2023-05-19T13:43:04.130Z,14.75
2023-05-19T13:45:31.607Z,14.69
2023-05-19T13:47:58.982Z,14.66
2023-05-19T13:50:26.654Z,14.62
2023-05-19T13:52:54.276Z,14.58
2023-05-19T13:55:21.651Z,14.55
2023-05-19T13:57:49.368Z,14.52
2023-05-19T14:00:18.631Z,14.48
2023-05-19T14:02:46.530Z,14.44
2023-05-19T14:05:14.033Z,14.42
2023-05-19T14:07:41.515Z,14.40
2023-05-19T14:10:09.345Z,14.37
2023-05-19T14:12:49.322Z,14.35
2023-05-19T14:15:24.102Z,14.33
2023-05-19T14:17:53.247Z,14.33
2023-05-19T14:20:20.545Z,14.34
2023-05-19T14:22:47.852Z,14.37
2023-05-19T14:25:15.019Z,14.39
2023-05-19T14:27:42.155Z,14.43
2023-05-19T14:30:09.765Z,14.46
2023-05-19T14:32:36.994Z,14.49
2023-05-19T14:35:04.553Z,14.50
2023-05-19T14:37:32.435Z,14.52
2023-05-19T14:39:59.716Z,14.51
2023-05-19T14:42:27.006Z,14.48
2023-05-19T14:44:54.285Z,14.48
2023-05-19T14:47:21.563Z,14.48
2023-05-19T14:49:48.911Z,14.46
2023-05-19T14:52:16.225Z,14.43
2023-05-19T14:54:43.387Z,14.42
2023-05-19T14:57:10.648Z,14.41
2023-05-19T14:59:38.512Z,14.40
2023-05-19T15:02:06.150Z,14.37
2023-05-19T15:04:33.366Z,14.37
2023-05-19T15:09:30.695Z,14.37
2023-05-19T15:11:58.157Z,14.36
2023-05-19T15:14:25.676Z,14.35
2023-05-19T15:16:53.868Z,14.34
2023-05-19T15:19:21.461Z,14.33
2023-05-19T15:21:50.718Z,14.32
2023-05-19T15:24:17.901Z,14.31
2023-05-19T15:26:45.744Z,14.30
2023-05-19T15:29:12.959Z,14.29
2023-05-19T15:31:40.241Z,14.27
2023-05-19T15:34:07.603Z,14.25
2023-05-19T15:36:34.791Z,14.22
2023-05-19T15:39:04.767Z,14.20
2023-05-19T15:41:32.088Z,14.19
2023-05-19T15:44:00.665Z,14.18
2023-05-19T15:46:28.899Z,14.16
2023-05-19T15:48:56.239Z,14.15
2023-05-19T15:51:24.172Z,14.14
2023-05-19T15:53:51.570Z,14.13
2023-05-19T15:56:19.524Z,14.12
2023-05-19T15:58:46.693Z,14.11
2023-05-19T16:01:15.196Z,14.11
2023-05-19T16:03:42.844Z,14.11
2023-05-19T16:06:10.238Z,14.11
2023-05-19T16:08:38.131Z,14.12
2023-05-19T16:11:05.598Z,14.13
2023-05-19T16:13:34.028Z,14.15
2023-05-19T16:16:01.675Z,14.19
2023-05-19T16:18:31.583Z,14.23
2023-05-19T16:20:58.840Z,14.27
2023-05-19T16:23:27.521Z,14.30
2023-05-19T16:25:54.997Z,14.32
2023-05-19T16:28:24.446Z,14.34
2023-05-19T16:30:52.220Z,14.37
2023-05-19T16:33:19.563Z,14.38
2023-05-19T16:35:46.800Z,14.39
2023-05-19T16:38:13.994Z,14.39
2023-05-19T16:40:41.182Z,14.39
2023-05-19T16:43:08.361Z,14.39
2023-05-19T16:45:35.726Z,14.38
2023-05-19T16:48:03.498Z,14.37
2023-05-19T16:50:30.810Z,14.35
2023-05-19T16:52:57.969Z,14.34
2023-05-19T16:55:26.825Z,14.34
2023-05-19T16:57:54.099Z,14.33
2023-05-19T17:00:21.360Z,14.32
2023-05-19T17:02:48.580Z,14.31
2023-05-19T17:05:16.048Z,14.29
2023-05-19T17:07:43.173Z,14.27
2023-05-19T17:10:10.550Z,14.25
2023-05-19T17:12:37.912Z,14.23
2023-05-19T17:15:05.667Z,14.21
2023-05-19T17:17:32.857Z,14.19
2023-05-19T17:20:00.087Z,14.17
2023-05-19T17:22:29.485Z,14.16
2023-05-19T17:24:57.663Z,14.14
2023-05-19T17:27:24.877Z,14.14
2023-05-19T17:29:52.009Z,14.16
2023-05-19T17:32:22.377Z,14.18
2023-05-19T17:34:49.497Z,14.19
2023-05-19T17:37:19.137Z,14.19
2023-05-19T17:39:46.283Z,14.20
2023-05-19T17:42:13.432Z,14.22
2023-05-19T17:44:41.460Z,14.22
2023-05-19T17:47:08.909Z,14.22
2023-05-19T17:49:36.346Z,14.22
2023-05-19T17:52:03.991Z,14.21
2023-05-19T17:54:31.499Z,14.20
2023-05-19T17:57:01.793Z,14.18
2023-05-19T17:59:30.216Z,14.16
2023-05-19T18:01:57.846Z,14.14
2023-05-19T18:04:25.635Z,14.12
2023-05-19T18:06:53.687Z,14.10
2023-05-19T18:09:23.807Z,14.09
2023-05-19T18:11:52.031Z,14.07
2023-05-19T18:14:19.262Z,14.06
2023-05-19T18:16:47.529Z,14.05
2023-05-19T18:19:14.854Z,14.03
2023-05-19T18:21:42.736Z,14.02
2023-05-19T18:24:11.426Z,14.02
2023-05-19T18:26:41.929Z,14.00
2023-05-19T18:29:11.839Z,13.99
2023-05-19T18:31:39.081Z,13.97
2023-05-19T18:34:06.485Z,13.97
2023-05-19T18:36:37.247Z,13.99
2023-05-19T18:39:04.720Z,14.01
2023-05-19T18:41:32.251Z,14.03
2023-05-19T18:43:59.428Z,14.06
2023-05-19T18:46:26.753Z,14.07
2023-05-19T18:48:54.062Z,14.07
2023-05-19T18:51:21.932Z,14.06
2023-05-19T18:53:50.214Z,14.05
2023-05-19T18:56:25.144Z,14.05
2023-05-19T18:58:54.232Z,14.03
2023-05-19T19:01:21.519Z,14.02
2023-05-19T19:03:49.441Z,14.00
2023-05-19T19:06:17.472Z,13.98
2023-05-19T19:08:44.680Z,13.96
2023-05-19T19:11:12.042Z,13.96
2023-05-19T19:13:39.755Z,13.93
2023-05-19T19:16:07.462Z,13.90
2023-05-19T19:18:36.495Z,13.89
2023-05-19T19:21:05.894Z,13.88
2023-05-19T19:23:33.270Z,13.87
2023-05-19T19:26:00.596Z,13.86
2023-05-19T19:28:27.832Z,13.84
2023-05-19T19:30:55.058Z,13.83
2023-05-19T19:33:22.390Z,13.82
2023-05-19T19:35:49.561Z,13.83
2023-05-19T19:38:16.793Z,13.86
2023-05-19T19:40:44.022Z,13.86
2023-05-19T19:43:11.422Z,13.86
2023-05-19T19:45:42.113Z,13.86
2023-05-19T19:48:09.459Z,13.86
2023-05-19T19:50:37.008Z,13.84
2023-05-19T19:53:04.485Z,13.82
2023-05-19T19:55:31.885Z,13.80
2023-05-19T19:57:59.102Z,13.78
2023-05-19T20:00:26.418Z,13.77
2023-05-19T20:03:03.541Z,13.75
2023-05-19T20:05:32.111Z,13.72
2023-05-19T20:07:59.370Z,13.70
2023-05-19T20:10:26.836Z,13.66
2023-05-19T20:12:54.195Z,13.64
2023-05-19T20:15:21.425Z,13.61
2023-05-19T20:17:48.824Z,13.58
2023-05-19T20:20:16.373Z,13.57
2023-05-19T20:22:45.986Z,13.56
2023-05-19T20:25:13.317Z,13.55
2023-05-19T20:27:40.745Z,13.56
2023-05-19T20:30:08.507Z,13.56
2023-05-19T20:32:35.924Z,13.57
2023-05-19T20:35:03.189Z,13.59
2023-05-19T20:37:30.425Z,13.60
2023-05-19T20:39:57.559Z,13.60
2023-05-19T20:42:24.827Z,13.60
2023-05-19T20:44:52.087Z,13.62
2023-05-19T20:47:20.083Z,13.63
2023-05-19T20:49:48.344Z,13.62
2023-05-19T20:52:16.708Z,13.61
2023-05-19T20:54:45.488Z,13.60
2023-05-19T20:57:13.202Z,13.58
2023-05-19T20:59:40.374Z,13.57
2023-05-19T21:02:08.026Z,13.55
2023-05-19T21:04:35.403Z,13.53
2023-05-19T21:07:02.766Z,13.52
2023-05-19T21:09:30.023Z,13.49
2023-05-19T21:11:57.179Z,13.47
2023-05-19T21:14:25.524Z,13.46
2023-05-19T21:16:54.336Z,13.44
2023-05-19T21:19:22.096Z,13.42
2023-05-19T21:21:49.745Z,13.42
2023-05-19T21:24:16.880Z,13.43
2023-05-19T21:26:44.140Z,13.45
2023-05-19T21:29:11.347Z,13.47
2023-05-19T21:31:38.625Z,13.49
2023-05-19T21:34:07.872Z,13.50
2023-05-19T21:36:35.355Z,13.52
2023-05-19T21:39:03.780Z,13.52
2023-05-19T21:41:34.004Z,13.52
2023-05-19T21:44:01.258Z,13.51
2023-05-19T21:46:29.338Z,13.51
2023-05-19T21:48:56.640Z,13.51
2023-05-19T21:51:24.091Z,13.51
2023-05-19T21:53:51.228Z,13.50
2023-05-19T21:56:18.524Z,13.48
2023-05-19T21:58:45.821Z,13.47
2023-05-19T22:01:13.312Z,13.46
2023-05-19T22:03:40.598Z,13.45
2023-05-19T22:06:08.378Z,13.44
2023-05-19T22:08:35.793Z,13.44
2023-05-19T22:11:03.047Z,13.42
2023-05-19T22:13:30.427Z,13.42
2023-05-19T22:15:58.143Z,13.43
2023-05-19T22:18:25.215Z,13.44
2023-05-19T22:20:52.451Z,13.46
2023-05-19T22:23:19.691Z,13.46
2023-05-19T22:25:47.094Z,13.47
2023-05-19T22:28:14.297Z,13.48
2023-05-19T22:30:42.343Z,13.50
2023-05-19T22:33:11.396Z,13.50
2023-05-19T22:35:38.773Z,13.50
2023-05-19T22:38:07.451Z,13.49
2023-05-19T22:40:36.932Z,13.48
2023-05-19T22:43:04.141Z,13.47
2023-05-19T22:45:31.949Z,13.46
2023-05-19T22:47:59.379Z,13.44
2023-05-19T22:50:26.814Z,13.42
2023-05-19T22:52:54.033Z,13.40
2023-05-19T22:55:21.522Z,13.38
2023-05-19T22:57:48.795Z,13.37
2023-05-19T23:00:18.809Z,13.36
2023-05-19T23:02:46.160Z,13.35
2023-05-19T23:05:13.590Z,13.34
2023-05-19T23:07:40.943Z,13.34
2023-05-19T23:10:08.617Z,13.35
2023-05-19T23:12:35.848Z,13.37
2023-05-19T23:15:03.820Z,13.39
2023-05-19T23:17:30.969Z,13.41
2023-05-19T23:19:58.279Z,13.42
2023-05-19T23:22:25.508Z,13.43
2023-05-19T23:24:52.699Z,13.43
2023-05-19T23:27:19.999Z,13.43
2023-05-19T23:29:51.039Z,13.42
2023-05-19T23:32:18.204Z,13.40
2023-05-19T23:34:47.472Z,13.40
2023-05-19T23:37:14.690Z,13.40
2023-05-19T23:39:41.991Z,13.39
2023-05-19T23:42:09.261Z,13.39
2023-05-19T23:44:36.547Z,13.38
2023-05-19T23:47:04.043Z,13.37
2023-05-19T23:49:31.153Z,13.36
2023-05-19T23:51:58.378Z,13.36
2023-05-19T23:54:26.775Z,13.35
2023-05-19T23:56:55.902Z,13.33
2023-05-19T23:59:23.290Z,13.31
